createdAt,value
2023-04-09T00:02:15.355Z,101124.63
2023-04-09T00:05:18.023Z,101123.53
2023-04-09T00:08:20.523Z,101103.44
2023-04-09T00:11:23.098Z,101124.97
2023-04-09T00:14:25.446Z,101123.44
2023-04-09T00:17:28.144Z,101126.19
2023-04-09T00:20:30.468Z,101107.91
2023-04-09T00:23:33.133Z,101101.44
2023-04-09T00:26:35.848Z,101126.69
2023-04-09T00:29:38.535Z,101126.78
2023-04-09T00:32:41.082Z,101124.63
2023-04-09T00:35:43.794Z,101107.03
2023-04-09T00:38:47.394Z,101125.19
2023-04-09T00:41:50.046Z,101100.78
2023-04-09T00:44:52.320Z,101102.22
2023-04-09T00:47:55.057Z,101120.31
2023-04-09T00:50:57.903Z,101117.44
2023-04-09T00:54:00.607Z,101102.03
2023-04-09T00:57:03.622Z,101116.50
2023-04-09T01:00:08.628Z,101101.69
2023-04-09T01:03:11.357Z,101105.53
2023-04-09T01:06:28.296Z,101105.28
2023-04-09T01:09:39.760Z,101120.59
2023-04-09T01:12:54.702Z,101125.41
2023-04-09T01:16:00.865Z,101122.06
2023-04-09T01:19:24.666Z,101106.38
2023-04-09T01:22:53.195Z,101121.31
2023-04-09T01:26:15.383Z,101124.22
2023-04-09T01:29:21.451Z,101108.56
2023-04-09T01:32:25.934Z,101109.41
2023-04-09T01:35:29.283Z,101119.94
2023-04-09T01:38:33.521Z,101116.31
2023-04-09T01:41:36.806Z,101106.28
2023-04-09T01:44:41.382Z,101120.69
2023-04-09T01:47:44.666Z,101121.97
2023-04-09T01:50:48.247Z,101124.22
2023-04-09T01:53:50.938Z,101098.72
2023-04-09T01:56:53.586Z,101120.97
2023-04-09T01:59:56.245Z,101125.56
2023-04-09T02:03:10.726Z,101116.44
2023-04-09T02:06:22.216Z,101116.56
2023-04-09T02:09:26.569Z,101117.78
2023-04-09T02:12:33.058Z,101114.19
2023-04-09T02:15:38.962Z,101110.88
2023-04-09T02:18:41.752Z,101117.94
2023-04-09T02:21:44.525Z,101120.44
2023-04-09T02:24:47.238Z,101117.94
2023-04-09T02:27:49.582Z,101110.97
2023-04-09T02:30:52.299Z,101094.72
2023-04-09T02:33:54.701Z,101112.19
2023-04-09T02:36:57.356Z,101109.06
2023-04-09T02:39:59.704Z,101095.91
2023-04-09T02:43:02.346Z,101111.59
2023-04-09T02:46:04.792Z,101114.34
2023-04-09T02:49:08.728Z,101103.44
2023-04-09T02:52:11.426Z,101115.28
2023-04-09T02:55:14.924Z,101113.25
2023-04-09T02:58:17.372Z,101107.28
2023-04-09T03:01:20.871Z,101091.84
2023-04-09T03:04:23.387Z,101111.44
2023-04-09T03:07:26.104Z,101115.03
2023-04-09T03:10:28.422Z,101112.53
2023-04-09T03:13:31.257Z,101091.59
2023-04-09T03:16:33.688Z,101100.94
2023-04-09T03:19:36.334Z,101115.28
2023-04-09T03:22:39.910Z,101117.78
2023-04-09T03:25:43.473Z,101108.94
2023-04-09T03:28:46.672Z,101088.75
2023-04-09T03:31:49.327Z,101097.38
2023-04-09T03:34:51.813Z,101110.59
2023-04-09T03:37:55.644Z,101119.59
2023-04-09T03:40:57.991Z,101099.25
2023-04-09T03:44:00.741Z,101116.47
2023-04-09T03:47:03.629Z,101116.94
2023-04-09T03:50:06.936Z,101113.97
2023-04-09T03:53:15.518Z,101121.16
2023-04-09T03:56:18.810Z,101121.63
2023-04-09T03:59:21.251Z,101121.72
2023-04-09T04:02:26.887Z,101126.66
2023-04-09T04:05:30.812Z,101125.31
2023-04-09T04:08:34.325Z,101132.16
2023-04-09T04:11:37.316Z,101131.09
2023-04-09T04:14:39.721Z,101131.69
2023-04-09T04:17:46.227Z,101105.63
2023-04-09T04:20:49.029Z,101132.75
2023-04-09T04:23:52.859Z,101130.50
2023-04-09T04:26:56.256Z,101130.25
2023-04-09T04:30:00.350Z,101133.25
2023-04-09T04:33:05.241Z,101117.59
2023-04-09T04:36:14.426Z,101125.13
2023-04-09T04:39:16.940Z,101142.22
2023-04-09T04:42:21.474Z,101145.56
2023-04-09T04:45:24.221Z,101140.06
2023-04-09T04:48:29.114Z,101143.75
2023-04-09T04:51:32.315Z,101143.84
2023-04-09T04:54:36.671Z,101147.22
2023-04-09T04:57:39.249Z,101124.72
2023-04-09T05:00:42.053Z,101132.47
2023-04-09T05:03:44.537Z,101137.25
2023-04-09T05:06:52.556Z,101149.34
2023-04-09T05:09:55.466Z,101148.63
2023-04-09T05:12:58.144Z,101134.66
2023-04-09T05:16:01.636Z,101128.31
2023-04-09T05:19:06.512Z,101136.94
2023-04-09T05:22:09.085Z,101160.38
2023-04-09T05:25:11.768Z,101157.94
2023-04-09T05:28:16.798Z,101143.84
2023-04-09T05:31:19.997Z,101141.44
2023-04-09T05:34:23.035Z,101158.28
2023-04-09T05:37:25.888Z,101165.72
2023-04-09T05:40:28.693Z,101168.09
2023-04-09T05:43:31.448Z,101152.19
2023-04-09T05:46:34.014Z,101169.75
2023-04-09T05:49:36.823Z,101178.63
2023-04-09T05:52:43.358Z,101180.66
2023-04-09T05:55:47.038Z,101160.19
2023-04-09T05:58:49.603Z,101178.44
2023-04-09T06:01:53.152Z,101178.19
2023-04-09T06:04:56.259Z,101178.88
2023-04-09T06:07:58.862Z,101186.06
2023-04-09T06:11:01.561Z,101171.50
2023-04-09T06:14:04.041Z,101190.22
2023-04-09T06:17:06.739Z,101190.13
2023-04-09T06:20:09.846Z,101183.59
2023-04-09T06:23:12.770Z,101166.38
2023-04-09T06:26:15.099Z,101188.66
2023-04-09T06:29:17.949Z,101190.66
2023-04-09T06:32:20.305Z,101171.16
2023-04-09T06:35:23.330Z,101191.00
2023-04-09T06:38:25.977Z,101171.25
2023-04-09T06:41:28.781Z,101189.66
2023-04-09T06:44:31.279Z,101188.81
2023-04-09T06:47:35.563Z,101188.66
2023-04-09T06:50:37.939Z,101185.16
2023-04-09T06:53:40.778Z,101185.97
2023-04-09T06:56:43.101Z,101191.66
2023-04-09T06:59:45.967Z,101193.53
2023-04-09T07:02:48.609Z,101194.69
2023-04-09T07:05:52.037Z,101187.19
2023-04-09T07:08:54.764Z,101186.34
2023-04-09T07:11:57.880Z,101205.06
2023-04-09T07:15:01.945Z,101207.09
2023-04-09T07:18:04.827Z,101208.06
2023-04-09T07:21:07.146Z,101207.31
2023-04-09T07:24:09.837Z,101205.72
2023-04-09T07:27:12.172Z,101215.28
2023-04-09T07:30:14.805Z,101216.78
2023-04-09T07:33:17.201Z,101226.31
2023-04-09T07:36:19.904Z,101224.66
2023-04-09T07:39:22.375Z,101214.84
2023-04-09T07:42:25.659Z,101199.69
2023-04-09T07:45:28.135Z,101206.22
2023-04-09T07:48:31.271Z,101220.19
2023-04-09T07:51:33.704Z,101206.56
2023-04-09T07:54:36.645Z,101231.91
2023-04-09T07:57:38.991Z,101226.25
2023-04-09T08:00:41.598Z,101227.94
2023-04-09T08:03:44.597Z,101233.59
2023-04-09T08:06:50.652Z,101232.38
2023-04-09T08:09:53.494Z,101220.78
2023-04-09T08:12:56.390Z,101222.53
2023-04-09T08:16:02.529Z,101226.47
2023-04-09T08:19:05.035Z,101231.41
2023-04-09T08:22:07.845Z,101236.44
2023-04-09T08:25:10.408Z,101230.78
2023-04-09T08:28:13.183Z,101237.78
2023-04-09T08:31:15.708Z,101243.34
2023-04-09T08:34:21.079Z,101236.44
2023-04-09T08:37:23.610Z,101243.84
2023-04-09T08:40:26.784Z,101244.47
2023-04-09T08:43:47.178Z,101225.75
2023-04-09T08:46:56.530Z,101229.25
2023-04-09T08:49:59.962Z,101244.69
2023-04-09T08:53:04.722Z,101253.06
2023-04-09T08:56:06.979Z,101241.81
2023-04-09T08:59:09.721Z,101240.00
2023-04-09T09:02:12.675Z,101259.50
2023-04-09T09:05:15.490Z,101269.81
2023-04-09T09:08:25.992Z,101269.88
2023-04-09T09:11:30.355Z,101259.81
2023-04-09T09:14:33.227Z,101270.78
2023-04-09T09:17:56.979Z,101270.81
2023-04-09T09:21:17.688Z,101268.97
2023-04-09T09:24:20.343Z,101271.22
2023-04-09T09:27:33.450Z,101272.16
2023-04-09T09:30:37.408Z,101251.19
2023-04-09T09:33:39.982Z,101254.78
2023-04-09T09:36:43.137Z,101269.34
2023-04-09T09:39:45.536Z,101267.72
2023-04-09T09:42:58.038Z,101268.31
2023-04-09T09:46:01.464Z,101243.22
2023-04-09T09:49:04.797Z,101265.03
2023-04-09T09:52:10.531Z,101246.66
2023-04-09T09:55:18.000Z,101267.25
2023-04-09T09:58:25.500Z,101262.75
2023-04-09T10:01:28.340Z,101257.28
2023-04-09T10:04:36.027Z,101256.16
2023-04-09T10:07:39.260Z,101245.03
2023-04-09T10:10:42.550Z,101247.09
2023-04-09T10:13:52.729Z,101256.12
2023-04-09T10:16:56.663Z,101252.03
2023-04-09T10:20:10.806Z,101261.38
2023-04-09T10:23:28.038Z,101256.53
2023-04-09T10:26:33.161Z,101258.81
2023-04-09T10:29:44.229Z,101257.31
2023-04-09T10:32:46.845Z,101261.78
2023-04-09T10:35:49.786Z,101265.22
2023-04-09T10:38:52.472Z,101251.66
2023-04-09T10:41:57.309Z,101252.50
2023-04-09T10:45:11.760Z,101256.31
2023-04-09T10:48:14.861Z,101257.91
2023-04-09T10:51:20.209Z,101253.84
2023-04-09T10:54:35.005Z,101254.84
2023-04-09T10:57:37.528Z,101254.37
2023-04-09T11:00:42.158Z,101238.00
2023-04-09T11:03:48.273Z,101242.12
2023-04-09T11:06:52.404Z,101255.44
2023-04-09T11:09:54.762Z,101249.03
2023-04-09T11:12:57.453Z,101235.44
2023-04-09T11:16:01.278Z,101242.12
2023-04-09T11:19:04.470Z,101229.28
2023-04-09T11:22:07.094Z,101250.97
2023-04-09T11:25:09.834Z,101245.44
2023-04-09T11:28:12.111Z,101236.25
2023-04-09T11:31:14.703Z,101247.91
2023-04-09T11:34:17.467Z,101244.81
2023-04-09T11:37:20.253Z,101241.53
2023-04-09T11:40:26.111Z,101242.34
2023-04-09T11:43:28.718Z,101232.63
2023-04-09T11:46:35.707Z,101236.56
2023-04-09T11:49:38.524Z,101222.69
2023-04-09T11:52:41.795Z,101236.06
2023-04-09T11:55:47.756Z,101228.06
2023-04-09T11:58:50.173Z,101220.56
2023-04-09T12:01:53.009Z,101237.81
2023-04-09T12:04:55.824Z,101233.91
2023-04-09T12:08:08.727Z,101223.31
2023-04-09T12:11:16.177Z,101229.16
2023-04-09T12:14:21.576Z,101231.41
2023-04-09T12:17:24.489Z,101238.62
2023-04-09T12:20:35.840Z,101208.91
2023-04-09T12:23:38.533Z,101227.75
2023-04-09T12:26:40.881Z,101211.06
2023-04-09T12:29:43.461Z,101207.22
2023-04-09T12:32:46.414Z,101214.66
2023-04-09T12:35:49.078Z,101200.22
2023-04-09T12:38:51.794Z,101217.19
2023-04-09T12:41:54.554Z,101205.19
2023-04-09T12:44:57.020Z,101213.75
2023-04-09T12:47:59.738Z,101191.06
2023-04-09T12:51:02.171Z,101176.50
2023-04-09T12:54:04.813Z,101199.09
2023-04-09T12:57:08.295Z,101198.19
2023-04-09T13:00:11.894Z,101206.72
2023-04-09T13:03:16.953Z,101184.09
2023-04-09T13:06:19.737Z,101181.16
2023-04-09T13:09:22.112Z,101198.91
2023-04-09T13:12:25.057Z,101176.16
2023-04-09T13:15:27.510Z,101186.00
2023-04-09T13:18:30.144Z,101177.13
2023-04-09T13:21:32.499Z,101166.81
2023-04-09T13:24:36.158Z,101186.00
2023-04-09T13:27:38.486Z,101174.97
2023-04-09T13:30:41.263Z,101177.09
2023-04-09T13:33:43.743Z,101165.31
2023-04-09T13:36:46.377Z,101155.13
2023-04-09T13:39:49.919Z,101169.63
2023-04-09T13:42:52.530Z,101155.06
2023-04-09T13:45:55.335Z,101169.66
2023-04-09T13:48:57.986Z,101164.66
2023-04-09T13:52:00.353Z,101171.41
2023-04-09T13:55:03.965Z,101153.16
2023-04-09T13:58:06.440Z,101158.59
2023-04-09T14:01:09.522Z,101167.06
2023-04-09T14:04:12.401Z,101163.00
2023-04-09T14:07:14.824Z,101139.81
2023-04-09T14:10:17.506Z,101154.38
2023-04-09T14:13:19.805Z,101158.00
2023-04-09T14:16:22.540Z,101143.38
2023-04-09T14:19:25.043Z,101157.69
2023-04-09T14:22:28.865Z,101140.00
2023-04-09T14:25:31.173Z,101134.03
2023-04-09T14:28:33.863Z,101128.44
2023-04-09T14:31:36.264Z,101128.31
2023-04-09T14:34:38.859Z,101140.09
2023-04-09T14:37:41.567Z,101145.16
2023-04-09T14:40:44.582Z,101146.84
2023-04-09T14:43:46.990Z,101127.44
2023-04-09T14:46:49.809Z,101133.38
2023-04-09T14:49:52.288Z,101118.06
2023-04-09T14:52:54.915Z,101126.19
2023-04-09T14:55:57.220Z,101115.41
2023-04-09T14:58:59.996Z,101133.44
2023-04-09T15:02:03.029Z,101126.78
2023-04-09T15:05:06.385Z,101134.53
2023-04-09T15:08:08.834Z,101131.69
2023-04-09T15:11:19.217Z,101126.50
2023-04-09T15:14:21.647Z,101125.72
2023-04-09T15:17:25.546Z,101121.19
2023-04-09T15:20:27.941Z,101124.09
2023-04-09T15:23:30.748Z,101125.47
2023-04-09T15:26:34.605Z,101119.09
2023-04-09T15:29:37.369Z,101118.19
2023-04-09T15:32:39.854Z,101095.16
2023-04-09T15:35:42.521Z,101128.03
2023-04-09T15:38:44.897Z,101106.91
2023-04-09T15:41:47.478Z,101125.25
2023-04-09T15:44:50.545Z,101124.19
2023-04-09T15:47:53.336Z,101126.50
2023-04-09T15:50:55.760Z,101110.94
2023-04-09T15:53:59.054Z,101121.47
2023-04-09T15:57:02.060Z,101110.69
2023-04-09T16:00:07.807Z,101124.59
2023-04-09T16:03:09.931Z,101103.50
2023-04-09T16:06:13.452Z,101116.53
2023-04-09T16:09:15.821Z,101120.16
2023-04-09T16:12:18.583Z,101107.38
2023-04-09T16:15:21.010Z,101125.44
2023-04-09T16:18:23.984Z,101119.59
2023-04-09T16:21:27.617Z,101125.16
2023-04-09T16:24:31.658Z,101114.38
2023-04-09T16:27:34.008Z,101129.34
2023-04-09T16:30:36.643Z,101131.03
2023-04-09T16:33:39.013Z,101136.03
2023-04-09T16:36:41.745Z,101132.72
2023-04-09T16:39:44.093Z,101127.16
2023-04-09T16:42:46.714Z,101111.06
2023-04-09T16:45:49.094Z,101135.78
2023-04-09T16:48:51.815Z,101133.00
2023-04-09T16:51:54.740Z,101141.34
2023-04-09T16:54:57.328Z,101120.50
2023-04-09T16:57:59.717Z,101129.44
2023-04-09T17:01:02.431Z,101135.25
2023-04-09T17:04:05.054Z,101128.87
2023-04-09T17:07:07.769Z,101130.53
2023-04-09T17:10:10.396Z,101133.88
2023-04-09T17:13:13.019Z,101111.34
2023-04-09T17:16:16.220Z,101129.13
2023-04-09T17:19:18.810Z,101115.53
2023-04-09T17:22:21.545Z,101115.53
2023-04-09T17:25:24.325Z,101131.66
2023-04-09T17:28:26.684Z,101138.87
2023-04-09T17:31:29.678Z,101132.19
2023-04-09T17:34:32.099Z,101138.87
2023-04-09T17:37:35.058Z,101136.66
2023-04-09T17:40:37.374Z,101126.59
2023-04-09T17:43:39.986Z,101146.38
2023-04-09T17:46:42.369Z,101146.06
2023-04-09T17:49:45.817Z,101133.00
2023-04-09T17:52:48.318Z,101148.59
2023-04-09T17:55:51.995Z,101151.66
2023-04-09T17:58:54.542Z,101138.84
2023-04-09T18:01:57.494Z,101157.16
2023-04-09T18:05:00.658Z,101156.03
2023-04-09T18:08:03.049Z,101148.00
2023-04-09T18:11:12.630Z,101152.72
2023-04-09T18:14:15.784Z,101169.09
2023-04-09T18:17:19.240Z,101173.00
2023-04-09T18:20:21.950Z,101169.09
2023-04-09T18:23:24.610Z,101157.41
2023-04-09T18:26:26.919Z,101160.72
2023-04-09T18:29:30.534Z,101177.66
2023-04-09T18:32:33.569Z,101179.59
2023-04-09T18:35:36.358Z,101188.16
2023-04-09T18:38:39.462Z,101197.91
2023-04-09T18:41:43.484Z,101195.34
2023-04-09T18:44:46.063Z,101177.84
2023-04-09T18:47:48.770Z,101192.00
2023-04-09T18:50:51.501Z,101178.31
2023-04-09T18:53:54.836Z,101179.16
2023-04-09T18:56:57.533Z,101201.38
2023-04-09T19:00:01.513Z,101202.75
2023-04-09T19:03:04.811Z,101201.06
2023-04-09T19:06:14.721Z,101185.19
2023-04-09T19:09:17.142Z,101188.50
2023-04-09T19:12:19.791Z,101191.25
2023-04-09T19:15:23.206Z,101209.31
2023-04-09T19:18:26.633Z,101207.06
2023-04-09T19:21:29.223Z,101208.97
2023-04-09T19:24:31.787Z,101207.00
2023-04-09T19:27:34.208Z,101209.47
2023-04-09T19:30:36.948Z,101190.53
2023-04-09T19:33:39.304Z,101212.78
2023-04-09T19:36:41.919Z,101216.97
2023-04-09T19:39:44.359Z,101184.41
2023-04-09T19:42:47.046Z,101204.97
2023-04-09T19:45:49.440Z,101189.34
2023-04-09T19:48:52.566Z,101207.94
2023-04-09T19:51:55.133Z,101201.56
2023-04-09T19:54:58.221Z,101203.75
2023-04-09T19:58:01.401Z,101184.78
2023-04-09T20:01:05.287Z,101200.66
2023-04-09T20:04:09.266Z,101203.66
2023-04-09T20:07:11.772Z,101203.34
2023-04-09T20:10:15.076Z,101191.66
2023-04-09T20:13:17.534Z,101205.78
2023-04-09T20:16:20.279Z,101210.50
2023-04-09T20:19:22.952Z,101205.75
2023-04-09T20:22:25.604Z,101194.00
2023-04-09T20:25:35.012Z,101209.63
2023-04-09T20:28:37.699Z,101189.28
2023-04-09T20:31:40.350Z,101200.16
2023-04-09T20:34:43.518Z,101194.56
2023-04-09T20:37:48.395Z,101189.50
2023-04-09T20:40:52.704Z,101210.94
2023-04-09T20:43:55.250Z,101207.78
2023-04-09T20:46:57.872Z,101211.59
2023-04-09T20:50:01.202Z,101196.25
2023-04-09T20:53:03.922Z,101211.00
2023-04-09T20:56:07.342Z,101216.53
2023-04-09T20:59:09.984Z,101214.75
2023-04-09T21:02:13.129Z,101195.78
2023-04-09T21:05:22.869Z,101217.78
2023-04-09T21:08:26.364Z,101194.13
2023-04-09T21:11:29.416Z,101207.50
2023-04-09T21:14:31.809Z,101206.00
2023-04-09T21:17:34.507Z,101209.56
2023-04-09T21:20:36.886Z,101206.78
2023-04-09T21:23:39.473Z,101210.34
2023-04-09T21:26:51.208Z,101183.84
2023-04-09T21:29:54.992Z,101184.50
2023-04-09T21:32:57.933Z,101189.50
2023-04-09T21:36:01.308Z,101207.63
2023-04-09T21:39:04.414Z,101180.03
2023-04-09T21:42:08.775Z,101207.31
2023-04-09T21:45:11.836Z,101205.31
2023-04-09T21:48:14.454Z,101193.88
2023-04-09T21:51:16.810Z,101201.34
2023-04-09T21:54:19.409Z,101187.06
2023-04-09T21:57:22.624Z,101204.00
2023-04-09T22:00:25.277Z,101209.81
2023-04-09T22:03:28.163Z,101211.41
2023-04-09T22:06:31.179Z,101212.25
2023-04-09T22:09:33.822Z,101218.00
2023-04-09T22:12:37.224Z,101200.72
2023-04-09T22:15:40.095Z,101210.41
2023-04-09T22:18:42.644Z,101214.28
2023-04-09T22:21:47.391Z,101212.28
2023-04-09T22:24:49.698Z,101217.81
2023-04-09T22:27:53.429Z,101213.84
2023-04-09T22:30:59.467Z,101220.47
2023-04-09T22:34:17.079Z,101214.34
2023-04-09T22:37:22.853Z,101220.13
2023-04-09T22:40:25.488Z,101203.41
2023-04-09T22:43:27.823Z,101204.81
2023-04-09T22:46:30.864Z,101201.28
2023-04-09T22:49:33.220Z,101206.56
2023-04-09T22:52:35.941Z,101222.47
2023-04-09T22:55:38.367Z,101220.97
2023-04-09T22:58:41.229Z,101218.41
2023-04-09T23:01:43.716Z,101200.69
2023-04-09T23:04:46.521Z,101230.66
2023-04-09T23:07:49.382Z,101220.59
2023-04-09T23:10:52.063Z,101220.09
2023-04-09T23:13:54.470Z,101200.22
2023-04-09T23:16:57.967Z,101229.34
2023-04-09T23:20:00.705Z,101217.13
2023-04-09T23:23:03.842Z,101197.28
2023-04-09T23:26:06.764Z,101217.63
2023-04-09T23:29:09.473Z,101216.78
2023-04-09T23:32:11.816Z,101211.84
2023-04-09T23:35:15.516Z,101208.00
2023-04-09T23:38:18.083Z,101194.03
2023-04-09T23:41:20.993Z,101209.16
2023-04-09T23:44:23.483Z,101212.56
2023-04-09T23:47:26.373Z,101203.72
2023-04-09T23:50:28.800Z,101205.31
2023-04-09T23:53:31.499Z,101186.94
2023-04-09T23:56:33.882Z,101206.91
2023-04-09T23:59:37.268Z,101182.47
